Warning: Javascript must be enabled to use all the features on this page!


Page Loading - Please Wait...

Click to hideNews Bulletins
Click to hide state-specific text
ICE EFFECTS ON STREAMFLOW - During winter, ice formation may cause stage and discharge values to appear higher than expected. Ice effects may be minor (occurring only at night and early morning) with baseline flows obvious, or the effects may be major (stage constantly increases over several days or weeks) resulting in greatly erroneous discharge. Streamgages experiencing minor ice conditions will continue to display stage and discharge values to enable users to estimate the approximate base-line stage and discharge. Streamgages experiencing major ice conditions will have the discharge record temporarily disabled to prevent use of erroneous discharge values. The discharge record will resume when it is determined that ice conditions are no longer present. Daily mean discharges during periods of ice effect will be estimated after detailed data analysis.

USGS 01190070 CONNECTICUT RIVER AT HARTFORD, CT

PROVISIONAL DATA SUBJECT TO REVISION

Click to hidestation-specific text
Station operated in cooperation with the Connecticut Department of Energy & Environmental Protection and the Army Corps of Engineers.
Boating safety tips
This station managed by the East Hartford CT Field Office.

Available Parameters Available Period
All 1 Available Parameters for this site
  
00065 Gage height 2007-10-01  2018-04-21

Graph
Graph w/ stats
Graph w/o stats
Graph w/ (up to 3) parms
Table
Tab-separated
Days  (7)
 

  -- or --
Begin date
 

End date
 

Summary of all available data for this site
Instantaneous-data availability statement
Gage height, feet
TIMEApr 14Apr 15Apr 16Apr 17Apr 18Apr 19Apr 20Apr 21
00:00 EDT5.74P  7.18P  9.18P  12.00P  13.06P  13.61P  13.32P  11.97P  
00:15 EDT5.77P  7.22P  9.21P  12.01P  13.06P  13.61P  13.30P  11.96P  
00:30 EDT5.82P  7.26P  9.22P  12.03P  13.07P  13.62P  13.29P  11.94P  
00:45 EDT5.86P  7.30P  9.23P  12.05P  13.07P  13.63P  13.28P  11.92P  
01:00 EDT5.90P  7.34P  9.25P  12.06P  13.08P  13.63P  13.26P  11.91P  
01:15 EDT5.94P  7.38P  9.27P  12.09P  13.08P  13.64P  13.25P  11.88P  
01:30 EDT5.98P  7.42P  9.29P  12.11P  13.08P  13.65P  13.23P  11.87P  
01:45 EDT6.02P  7.46P  9.31P  12.13P  13.09P  13.65P  13.21P  11.85P  
02:00 EDT6.05P  7.50P  9.34P  12.17P  13.09P  13.66P  13.20P  11.83P  
02:15 EDT6.08P  7.54P  9.36P  12.21P  13.10P  13.66P  13.19P  11.81P  
02:30 EDT6.11P  7.58P  9.38P  12.24P  13.10P  13.68P  13.18P  11.80P  
02:45 EDT6.13P  7.62P  9.40P  12.26P  13.11P  13.68P  13.17P  11.76P  
03:00 EDT6.15P  7.65P  9.42P  12.31P  13.12P  13.69P  13.16P  11.75P  
03:15 EDT6.16P  7.68P  9.44P  12.34P  13.12P  13.70P  13.15P  11.72P  
03:30 EDT6.18P  7.72P  9.46P  12.37P  13.14P  13.71P  13.14P  11.71P  
03:45 EDT 7.74P  9.49P  12.41P  13.14P  13.71P  13.12P  11.70P  
04:00 EDT6.20P    12.42P  13.15P  13.72P  13.12P  11.67P  
04:15 EDT6.21P  7.80P  9.53P     13.11P  11.66P  
04:30 EDT6.21P  7.81P  9.54P  12.49P  13.17P  13.74P  13.10P  11.65P  
04:45 EDT6.22P  7.84P  9.56P  12.51P  13.18P  13.74P  13.08P   
05:00 EDT6.22P  7.86P  9.57P  12.54P  13.20P  13.75P  13.08P   
05:15 EDT6.22P  7.89P  9.58P  12.58P  13.20P  13.76P  13.07P   
05:30 EDT6.22P  7.90P  9.60P  12.60P  13.21P  13.76P  13.06P   
05:45 EDT6.22P  7.92P  9.61P  12.62P  13.22P  13.77P  13.05P   
06:00 EDT6.22P  7.94P  9.62P  12.65P  13.23P  13.78P  13.04P   
06:15 EDT6.22P  7.96P  9.63P  12.66P  13.24P  13.79P  13.03P   
06:30 EDT6.21P  7.98P  9.64P  12.69P  13.24P  13.80P  13.02P   
06:45 EDT6.21P  8.00P  9.65P  12.71P  13.26P  13.80P  13.02P   
07:00 EDT6.21P  8.01P  9.66P  12.73P  13.26P  13.81P  13.02P   
07:15 EDT6.20P  8.03P  9.66P  12.75P  13.27P  13.81P  13.00P   
07:30 EDT6.20P  8.05P  9.68P  12.77P  13.28P  13.82P  12.99P   
07:45 EDT6.19P  8.07P  9.70P  12.78P  13.29P  13.82P  12.98P   
08:00 EDT6.19P  8.09P  9.71P  12.81P  13.30P  13.82P  12.97P   
08:15 EDT6.18P  8.10P  9.73P  12.82P  13.30P  13.83P  12.96P   
08:30 EDT6.18P  8.12P  9.74P  12.84P  13.31P  13.83P  12.95P   
08:45 EDT6.18P  8.14P  9.75P  12.85P  13.32P  13.83P  12.94P   
09:00 EDT6.18P  8.16P  9.77P  12.87P  13.32P  13.84P  12.93P   
09:15 EDT6.18P  8.18P  9.78P  12.88P  13.33P  13.83P  12.92P   
09:30 EDT6.19P  8.20P  9.80P  12.90P  13.34P  13.83P  12.90P   
09:45 EDT6.18P  8.22P  9.82P  12.92P  13.34P  13.83P  12.88P   
10:00 EDT   12.93P  13.34P  13.83P  12.87P   
10:15 EDT6.19P  8.26P  9.84P    13.83P  12.85P   
10:30 EDT6.20P  8.28P  9.87P  12.96P  13.35P   12.84P   
10:45 EDT6.21P  8.31P  9.89P  12.97P  13.36P  13.82P  12.82P   
11:00 EDT6.21P  8.33P  9.91P  12.98P  13.36P  13.82P  12.80P   
11:15 EDT6.22P  8.34P  9.93P  12.99P  13.36P  13.81P  12.79P   
11:30 EDT6.23P  8.37P  9.95P  13.00P  13.36P  13.81P  12.77P   
11:45 EDT6.24P  8.40P  9.96P  13.01P  13.37P  13.80P  12.76P   
12:00 EDT6.26P  8.42P  10.02P  13.01P  13.37P  13.80P  12.74P   
12:15 EDT6.28P  8.45P  10.09P  13.01P  13.37P  13.80P  12.73P   
12:30 EDT6.30P  8.48P  10.16P  13.02P  13.37P  13.79P  12.71P   
12:45 EDT6.33P  8.50P  10.22P  13.02P  13.37P  13.78P  12.69P   
13:00 EDT6.36P  8.54P  10.28P  13.02P  13.37P  13.77P  12.68P   
13:15 EDT6.40P  8.57P  10.35P  13.02P  13.37P  13.77P  12.66P   
13:30 EDT6.43P  8.61P  10.41P  13.03P  13.37P  13.76P  12.64P   
13:45 EDT6.46P  8.64P  10.50P  13.03P  13.37P  13.75P  12.62P   
14:00 EDT6.49P  8.66P  10.60P  13.03P  13.37P  13.74P  12.61P   
14:15 EDT6.53P  8.70P  10.68P  13.03P  13.37P  13.73P  12.59P   
14:30 EDT6.56P  8.73P  10.75P  13.02P  13.37P  13.72P  12.58P   
14:45 EDT6.59P  8.76P  10.81P  13.03P  13.37P  13.71P  12.56P   
15:00 EDT6.62P  8.80P  10.88P  13.02P  13.38P  13.70P  12.54P   
15:15 EDT6.64P  8.83P  10.94P  13.02P  13.38P  13.69P  12.51P   
15:30 EDT6.67P  8.86P  11.00P  13.02P  13.38P  13.68P  12.51P   
15:45 EDT6.71P  8.88P  11.06P  13.02P  13.38P  13.68P  12.49P   
16:00 EDT6.74P    13.02P  13.39P  13.66P  12.46P   
16:15 EDT6.75P  8.92P  11.17P    13.66P  12.45P   
16:30 EDT6.76P  8.94P  11.24P  13.02P  13.40P   12.42P   
16:45 EDT6.78P  8.97P  11.28P  13.02P  13.40P  13.64P  12.41P   
17:00 EDT6.79P  8.98P  11.33P  13.03P  13.40P  13.63P  12.40P   
17:15 EDT6.80P  9.00P  11.36P  13.04P  13.41P  13.62P  12.38P   
17:30 EDT6.81P  9.01P  11.41P  13.03P  13.41P  13.61P  12.36P   
17:45 EDT6.82P  9.02P  11.45P  13.02P  13.42P  13.60P  12.35P   
18:00 EDT6.83P  9.04P  11.47P  13.03P  13.42P  13.60P  12.33P   
18:15 EDT6.84P  9.05P  11.51P  13.02P  13.43P  13.58P  12.31P   
18:30 EDT6.84P  9.06P  11.54P  13.03P  13.44P  13.58P  12.31P   
18:45 EDT6.91P  9.07P  11.56P  13.02P  13.44P  13.57P  12.29P   
19:00 EDT6.92P  9.08P  11.60P  13.02P  13.45P  13.56P  12.26P   
19:15 EDT6.93P  9.08P  11.62P  13.03P  13.46P  13.54P  12.26P   
19:30 EDT6.94P  9.09P  11.65P  13.03P  13.46P  13.53P  12.24P   
19:45 EDT6.94P  9.09P  11.67P  13.02P  13.47P  13.52P  12.22P   
20:00 EDT6.95P  9.10P  11.69P  13.02P  13.48P  13.52P  12.21P   
20:15 EDT6.96P  9.10P  11.71P  13.03P  13.49P  13.50P  12.21P   
20:30 EDT6.96P  9.11P  11.74P  13.03P  13.50P  13.50P  12.20P   
20:45 EDT6.97P  9.12P  11.76P  13.03P  13.51P  13.49P  12.17P   
21:00 EDT6.98P  9.13P  11.78P  13.04P  13.52P  13.48P  12.16P   
21:15 EDT7.00P  9.13P  11.80P  13.03P  13.52P  13.47P  12.15P   
21:30 EDT7.01P  9.14P  11.81P  13.04P  13.54P  13.46P  12.13P   
21:45 EDT7.01P  9.14P  11.83P  13.04P  13.54P  13.45P  12.12P   
22:00 EDT  11.86P  13.04P  13.55P  13.44P  12.10P   
22:15 EDT7.04P  9.15P     13.42P  12.08P   
22:30 EDT7.06P  9.15P  11.88P  13.05P  13.56P  13.42P  12.08P   
22:45 EDT7.06P  9.15P  11.91P  13.05P  13.57P  13.40P  12.05P   
23:00 EDT7.09P  9.15P  11.92P  13.05P  13.58P  13.38P  12.04P   
23:15 EDT7.11P  9.16P  11.94P  13.05P  13.59P  13.37P  12.01P   
23:30 EDT7.13P  9.17P  11.96P  13.06P  13.60P  13.36P  12.00P   
23:45 EDT7.16P  9.17P  11.97P  13.06P  13.60P  13.34P  11.97P   
COUNT9392929292939619
MAX7.169.1711.9713.0613.6013.8413.3211.97
MIN5.747.189.1812.0013.0613.3411.9711.65

Explanation
  P  Provisional data subject to revision.